createdAt,value
2018-09-16T00:00:00.116Z,49.60
2018-09-16T00:01:04.308Z,49.60
2018-09-16T00:02:08.692Z,49.60
2018-09-16T00:03:13.124Z,49.60
2018-09-16T00:04:17.580Z,49.60
2018-09-16T00:05:21.813Z,49.60
2018-09-16T00:06:26.053Z,49.60
2018-09-16T00:07:30.295Z,49.60
2018-09-16T00:08:34.579Z,49.60
2018-09-16T00:09:38.838Z,50.30
2018-09-16T00:10:43.250Z,49.70
2018-09-16T00:11:47.494Z,49.70
2018-09-16T00:12:51.830Z,49.70
2018-09-16T00:13:56.174Z,49.70
2018-09-16T00:15:00.553Z,49.70
2018-09-16T00:16:04.952Z,49.70
2018-09-16T00:17:09.407Z,49.70
2018-09-16T00:18:13.679Z,49.70
2018-09-16T00:19:18.105Z,49.70
2018-09-16T00:20:22.563Z,49.70
2018-09-16T00:21:26.950Z,49.70
2018-09-16T00:22:31.437Z,49.70
2018-09-16T00:23:35.966Z,49.70
2018-09-16T00:24:40.948Z,49.70
2018-09-16T00:25:45.455Z,49.70
2018-09-16T00:26:49.857Z,49.80
2018-09-16T00:27:54.378Z,49.80
2018-09-16T00:28:58.845Z,49.80
2018-09-16T00:30:03.126Z,49.80
2018-09-16T00:31:07.567Z,49.80
2018-09-16T00:32:12.012Z,49.80
2018-09-16T00:33:16.996Z,49.80
2018-09-16T00:34:22.020Z,49.80
2018-09-16T00:35:26.467Z,49.80
2018-09-16T00:36:30.952Z,49.80
2018-09-16T00:37:35.295Z,49.80
2018-09-16T00:38:40.259Z,49.80
2018-09-16T00:39:45.283Z,49.80
2018-09-16T00:40:49.713Z,49.80
2018-09-16T00:41:54.150Z,49.80
2018-09-16T00:42:58.416Z,49.80
2018-09-16T00:44:02.655Z,49.80
2018-09-16T00:45:07.120Z,49.80
2018-09-16T00:46:11.560Z,49.90
2018-09-16T00:47:15.793Z,50.50
2018-09-16T00:48:20.260Z,49.80
2018-09-16T00:49:24.553Z,49.90
2018-09-16T00:50:29.011Z,49.80
2018-09-16T00:51:33.490Z,49.90
2018-09-16T00:52:37.985Z,49.90
2018-09-16T00:53:42.398Z,49.90
2018-09-16T00:54:46.892Z,49.90
2018-09-16T00:55:51.148Z,49.90
2018-09-16T00:56:56.161Z,49.90
2018-09-16T00:58:01.163Z,49.90
2018-09-16T00:59:05.582Z,49.90
2018-09-16T01:00:09.990Z,49.90
2018-09-16T01:01:14.393Z,49.90
2018-09-16T01:02:18.801Z,49.90
2018-09-16T01:03:23.074Z,49.90
2018-09-16T01:04:27.522Z,49.90
2018-09-16T01:05:32.494Z,49.90
2018-09-16T01:06:37.554Z,49.90
2018-09-16T01:07:41.928Z,50.00
2018-09-16T01:08:46.326Z,49.90
2018-09-16T01:09:50.688Z,49.90
2018-09-16T01:10:55.181Z,50.60
2018-09-16T01:11:59.662Z,49.90
2018-09-16T01:13:03.876Z,50.00
2018-09-16T01:14:08.871Z,50.00
2018-09-16T01:15:13.248Z,50.00
2018-09-16T01:16:17.683Z,50.00
2018-09-16T01:17:22.084Z,50.00
2018-09-16T01:18:26.468Z,50.00
2018-09-16T01:19:31.418Z,50.00
2018-09-16T01:20:35.851Z,50.00
2018-09-16T01:21:40.202Z,50.00
2018-09-16T01:22:44.536Z,50.00
2018-09-16T01:23:49.517Z,50.00
2018-09-16T01:24:53.736Z,50.00
2018-09-16T01:25:58.711Z,50.00
2018-09-16T01:27:03.114Z,50.00
2018-09-16T01:28:07.346Z,50.00
2018-09-16T01:29:12.323Z,50.60
2018-09-16T01:30:16.521Z,50.00
2018-09-16T01:31:21.471Z,50.00
2018-09-16T01:32:26.487Z,50.00
2018-09-16T01:33:31.456Z,50.00
2018-09-16T01:34:35.901Z,50.00
2018-09-16T01:35:40.285Z,50.10
2018-09-16T01:36:44.623Z,50.10
2018-09-16T01:37:49.082Z,50.10
2018-09-16T01:38:53.565Z,50.10
2018-09-16T01:39:57.878Z,50.10
2018-09-16T01:41:02.897Z,50.10
2018-09-16T01:42:07.974Z,50.10
2018-09-16T01:43:12.455Z,50.10
2018-09-16T01:44:16.904Z,50.10
2018-09-16T01:45:21.343Z,50.10
2018-09-16T01:46:25.812Z,50.10
2018-09-16T01:47:30.310Z,50.10
2018-09-16T01:48:34.592Z,50.10
2018-09-16T01:49:39.604Z,50.10
2018-09-16T01:50:43.923Z,50.10
2018-09-16T01:51:48.362Z,50.10
2018-09-16T01:52:53.300Z,50.10
2018-09-16T01:53:57.769Z,50.10
2018-09-16T01:55:02.782Z,50.80
2018-09-16T01:56:07.311Z,50.10
2018-09-16T01:57:11.723Z,50.10
2018-09-16T01:58:16.164Z,50.10
2018-09-16T01:59:20.458Z,50.10
2018-09-16T02:00:24.918Z,50.20
2018-09-16T02:01:29.555Z,50.10
2018-09-16T02:02:34.595Z,50.10
2018-09-16T02:03:38.834Z,50.10
2018-09-16T02:04:43.121Z,50.10
2018-09-16T02:05:47.386Z,50.20
2018-09-16T02:06:52.109Z,50.10
2018-09-16T02:07:56.625Z,50.10
2018-09-16T02:09:01.597Z,50.10
2018-09-16T02:10:05.841Z,50.10
2018-09-16T02:11:10.147Z,50.20
2018-09-16T02:12:14.428Z,50.20
2018-09-16T02:13:18.975Z,50.20
2018-09-16T02:14:23.221Z,50.20
2018-09-16T02:15:28.203Z,50.20
2018-09-16T02:16:32.676Z,50.20
2018-09-16T02:17:37.218Z,50.20
2018-09-16T02:18:41.639Z,50.20
2018-09-16T02:19:46.695Z,50.20
2018-09-16T02:20:51.222Z,50.20
2018-09-16T02:21:55.679Z,50.20
2018-09-16T02:23:00.161Z,50.20
2018-09-16T02:24:04.674Z,50.20
2018-09-16T02:25:09.154Z,50.20
2018-09-16T02:26:14.372Z,50.20
2018-09-16T02:27:18.617Z,50.20
2018-09-16T02:28:22.861Z,50.20
2018-09-16T02:29:27.826Z,50.20
2018-09-16T02:30:32.334Z,50.20
2018-09-16T02:31:36.809Z,50.30
2018-09-16T02:32:41.260Z,50.20
2018-09-16T02:33:45.496Z,50.20
2018-09-16T02:34:49.922Z,50.20
2018-09-16T02:35:54.902Z,50.20
2018-09-16T02:36:59.146Z,50.20
2018-09-16T02:38:03.614Z,50.20
2018-09-16T02:39:08.036Z,50.30
2018-09-16T02:40:12.447Z,50.20
2018-09-16T02:41:16.848Z,50.20
2018-09-16T02:42:21.254Z,50.30
2018-09-16T02:43:25.709Z,50.20
2018-09-16T02:44:30.094Z,50.30
2018-09-16T02:45:34.508Z,50.30
2018-09-16T02:46:38.750Z,50.30
2018-09-16T02:47:43.725Z,50.30
2018-09-16T02:48:48.186Z,50.20
2018-09-16T02:49:53.156Z,50.30
2018-09-16T02:50:57.532Z,50.30
2018-09-16T02:52:01.785Z,50.20
2018-09-16T02:53:06.818Z,50.30
2018-09-16T02:54:11.228Z,50.30
2018-09-16T02:55:15.670Z,50.30
2018-09-16T02:56:19.905Z,50.30
2018-09-16T02:57:24.317Z,50.30
2018-09-16T02:58:28.742Z,50.30
2018-09-16T02:59:33.211Z,50.30
2018-09-16T03:00:37.505Z,50.30
2018-09-16T03:01:41.887Z,50.30
2018-09-16T03:02:46.308Z,50.30
2018-09-16T03:03:50.523Z,50.30
2018-09-16T03:04:55.470Z,50.30
2018-09-16T03:05:59.896Z,50.30
2018-09-16T03:07:04.319Z,50.30
2018-09-16T03:08:08.706Z,50.30
2018-09-16T03:09:13.127Z,50.30
2018-09-16T03:10:18.076Z,50.30
2018-09-16T03:11:22.512Z,50.30
2018-09-16T03:12:27.442Z,50.40
2018-09-16T03:13:31.682Z,50.30
2018-09-16T03:14:36.072Z,50.30
2018-09-16T03:15:40.340Z,50.30
2018-09-16T03:16:44.726Z,50.30
2018-09-16T03:17:49.103Z,50.30
2018-09-16T03:18:54.127Z,50.30
2018-09-16T03:19:58.341Z,50.30
2018-09-16T03:21:02.747Z,50.30
2018-09-16T03:22:06.975Z,50.30
2018-09-16T03:23:11.190Z,50.30
2018-09-16T03:24:15.571Z,50.30
2018-09-16T03:25:19.985Z,50.30
2018-09-16T03:26:24.376Z,50.40
2018-09-16T03:27:29.403Z,50.30
2018-09-16T03:28:34.382Z,50.30
2018-09-16T03:29:39.375Z,50.30
2018-09-16T03:30:43.640Z,50.40
2018-09-16T03:31:47.832Z,50.30
2018-09-16T03:32:52.224Z,50.40
2018-09-16T03:33:56.621Z,50.40
2018-09-16T03:35:01.013Z,50.40
2018-09-16T03:36:05.432Z,50.40
2018-09-16T03:37:10.341Z,50.40
2018-09-16T03:38:15.258Z,50.40
2018-09-16T03:39:20.151Z,50.40
2018-09-16T03:40:25.119Z,50.40
2018-09-16T03:41:29.365Z,50.40
2018-09-16T03:42:33.797Z,50.40
2018-09-16T03:43:38.242Z,50.40
2018-09-16T03:44:43.193Z,50.40
2018-09-16T03:45:48.193Z,50.40
2018-09-16T03:46:52.527Z,50.40
2018-09-16T03:47:57.484Z,50.40
2018-09-16T03:49:01.886Z,50.40
2018-09-16T03:50:06.213Z,50.40
2018-09-16T03:51:10.456Z,50.40
2018-09-16T03:52:15.454Z,50.40
2018-09-16T03:53:20.421Z,50.40
2018-09-16T03:54:24.636Z,50.40
2018-09-16T03:55:29.020Z,50.40
2018-09-16T03:56:33.260Z,50.50
2018-09-16T03:57:38.240Z,50.40
2018-09-16T03:58:42.525Z,50.40
2018-09-16T03:59:47.015Z,50.40
2018-09-16T04:00:51.270Z,50.40
2018-09-16T04:01:55.687Z,50.40
2018-09-16T04:03:00.043Z,50.40
2018-09-16T04:04:04.431Z,50.40
2018-09-16T04:05:08.734Z,50.40
2018-09-16T04:06:13.104Z,50.40
2018-09-16T04:07:17.458Z,50.90
2018-09-16T04:08:21.653Z,50.30
2018-09-16T04:09:25.904Z,50.30
2018-09-16T04:10:30.116Z,50.40
2018-09-16T04:11:34.469Z,50.30
2018-09-16T04:12:38.862Z,50.30
2018-09-16T04:13:43.166Z,50.30
2018-09-16T04:14:48.106Z,50.30
2018-09-16T04:15:52.313Z,50.30
2018-09-16T04:16:56.761Z,50.40
2018-09-16T04:18:01.131Z,50.40
2018-09-16T04:19:05.555Z,50.40
2018-09-16T04:20:09.761Z,50.40
2018-09-16T04:21:14.752Z,50.40
2018-09-16T04:22:19.166Z,50.40
2018-09-16T04:23:23.404Z,50.40
2018-09-16T04:24:27.669Z,50.40
2018-09-16T04:25:32.083Z,50.40
2018-09-16T04:26:36.543Z,50.40
2018-09-16T04:27:40.993Z,51.20
2018-09-16T04:28:45.448Z,50.40
2018-09-16T04:29:49.940Z,50.40
2018-09-16T04:30:54.306Z,50.50
2018-09-16T04:31:58.676Z,50.40
2018-09-16T04:33:02.862Z,50.40
2018-09-16T04:34:07.264Z,51.10
2018-09-16T04:35:12.182Z,50.40
2018-09-16T04:36:16.398Z,50.40
2018-09-16T04:37:21.339Z,51.10
2018-09-16T04:38:25.763Z,50.40
2018-09-16T04:39:30.280Z,50.50
2018-09-16T04:40:34.518Z,50.50
2018-09-16T04:41:39.532Z,50.40
2018-09-16T04:42:44.078Z,50.50
2018-09-16T04:43:48.330Z,50.50
2018-09-16T04:44:52.671Z,50.50
2018-09-16T04:45:56.867Z,50.50
2018-09-16T04:47:01.251Z,50.50
2018-09-16T04:48:05.543Z,50.50
2018-09-16T04:49:09.819Z,50.50
2018-09-16T04:50:14.190Z,50.50
2018-09-16T04:51:19.157Z,50.50
2018-09-16T04:52:23.521Z,50.50
2018-09-16T04:53:27.903Z,50.50
2018-09-16T04:54:32.301Z,50.50
2018-09-16T04:55:36.712Z,50.50
2018-09-16T04:56:41.720Z,50.50
2018-09-16T04:57:46.164Z,50.50
2018-09-16T04:58:50.579Z,50.50
2018-09-16T04:59:54.786Z,50.50
2018-09-16T05:00:59.289Z,50.50
2018-09-16T05:02:03.681Z,50.50
2018-09-16T05:03:08.652Z,50.50
2018-09-16T05:04:13.115Z,50.50
2018-09-16T05:05:17.591Z,51.10
2018-09-16T05:06:22.126Z,50.50
2018-09-16T05:07:26.607Z,50.40
2018-09-16T05:08:31.095Z,50.40
2018-09-16T05:09:36.078Z,50.40
2018-09-16T05:10:41.055Z,51.00
2018-09-16T05:11:45.373Z,50.30
2018-09-16T05:12:49.867Z,50.20
2018-09-16T05:13:54.944Z,50.10
2018-09-16T05:15:00.065Z,50.20
2018-09-16T05:16:05.172Z,50.10
2018-09-16T05:17:09.627Z,50.70
2018-09-16T05:18:14.093Z,50.00
2018-09-16T05:19:18.550Z,50.00
2018-09-16T05:20:23.596Z,50.00
2018-09-16T05:21:28.086Z,49.90
2018-09-16T05:22:33.166Z,49.90
2018-09-16T05:23:37.644Z,49.90
2018-09-16T05:24:42.077Z,49.80
2018-09-16T05:25:46.337Z,49.80
2018-09-16T05:26:51.455Z,49.80
2018-09-16T05:27:55.930Z,49.80
2018-09-16T05:29:00.319Z,49.70
2018-09-16T05:30:04.763Z,49.70
2018-09-16T05:31:09.240Z,49.70
2018-09-16T05:32:13.740Z,49.70
2018-09-16T05:33:18.001Z,49.70
2018-09-16T05:34:22.473Z,49.60
2018-09-16T05:35:27.458Z,49.60
2018-09-16T05:36:32.476Z,49.60
2018-09-16T05:37:37.163Z,49.60
2018-09-16T05:38:42.156Z,49.60
2018-09-16T05:39:46.610Z,49.60
2018-09-16T05:40:51.614Z,49.50
2018-09-16T05:41:56.020Z,49.60
2018-09-16T05:43:00.418Z,49.50
2018-09-16T05:44:05.036Z,49.50
2018-09-16T05:45:10.036Z,49.50
2018-09-16T05:46:14.457Z,49.50
2018-09-16T05:47:19.477Z,49.50
2018-09-16T05:48:23.901Z,49.50
2018-09-16T05:49:28.875Z,49.50
2018-09-16T05:50:33.080Z,49.50
2018-09-16T05:51:37.317Z,49.50
2018-09-16T05:52:42.327Z,49.60
2018-09-16T05:53:47.259Z,49.50
2018-09-16T05:54:51.706Z,50.20
2018-09-16T05:55:55.980Z,49.50
2018-09-16T05:57:00.384Z,49.50
2018-09-16T05:58:05.941Z,49.60
2018-09-16T05:59:10.957Z,49.60
2018-09-16T06:00:15.929Z,49.70
2018-09-16T06:01:20.394Z,49.80
2018-09-16T06:02:24.774Z,49.90
2018-09-16T06:03:29.172Z,49.90
2018-09-16T06:04:34.185Z,50.00
2018-09-16T06:05:38.476Z,50.00
2018-09-16T06:06:43.127Z,50.00
2018-09-16T06:07:47.644Z,50.10
2018-09-16T06:08:52.764Z,50.20
2018-09-16T06:09:57.358Z,50.70
2018-09-16T06:11:01.558Z,50.10
2018-09-16T06:12:06.635Z,50.20
2018-09-16T06:13:11.078Z,50.20
2018-09-16T06:14:15.319Z,50.20
2018-09-16T06:15:19.761Z,50.20
2018-09-16T06:16:24.189Z,50.20
2018-09-16T06:17:28.452Z,50.20
2018-09-16T06:18:32.685Z,50.20
2018-09-16T06:19:37.816Z,50.20
2018-09-16T06:20:42.074Z,50.10
2018-09-16T06:21:46.293Z,50.10
2018-09-16T06:22:50.967Z,50.10
2018-09-16T06:23:55.831Z,50.10
2018-09-16T06:25:00.351Z,50.10
2018-09-16T06:26:04.599Z,50.10
2018-09-16T06:27:09.038Z,50.00
2018-09-16T06:28:13.461Z,50.10
2018-09-16T06:29:17.931Z,50.10
2018-09-16T06:30:22.361Z,50.10
2018-09-16T06:31:27.365Z,50.00
2018-09-16T06:32:32.444Z,50.00
2018-09-16T06:33:37.686Z,50.00
2018-09-16T06:34:42.094Z,50.00
2018-09-16T06:35:46.652Z,50.00
2018-09-16T06:36:51.166Z,50.00
2018-09-16T06:37:55.662Z,50.00
2018-09-16T06:39:00.032Z,50.00
2018-09-16T06:40:05.105Z,50.00
2018-09-16T06:41:10.112Z,50.00
2018-09-16T06:42:14.521Z,50.00
2018-09-16T06:43:19.666Z,49.90
2018-09-16T06:44:24.133Z,49.90
2018-09-16T06:45:28.544Z,49.80
2018-09-16T06:46:33.594Z,49.80
2018-09-16T06:47:38.096Z,49.80
2018-09-16T06:48:43.097Z,49.80
2018-09-16T06:49:47.301Z,49.80
2018-09-16T06:50:52.418Z,49.80
2018-09-16T06:51:56.846Z,49.90
2018-09-16T06:53:01.376Z,49.80
2018-09-16T06:54:05.597Z,49.80
2018-09-16T06:55:10.619Z,49.70
2018-09-16T06:56:15.633Z,49.60
2018-09-16T06:57:20.000Z,49.60
2018-09-16T06:58:24.278Z,49.60
2018-09-16T06:59:29.311Z,49.60
2018-09-16T07:00:33.830Z,49.50
2018-09-16T07:01:38.376Z,49.50
2018-09-16T07:02:42.676Z,49.30
2018-09-16T07:03:47.166Z,49.30
2018-09-16T07:04:52.222Z,49.40
2018-09-16T07:05:59.349Z,49.40
2018-09-16T07:07:04.421Z,49.50
2018-09-16T07:08:08.620Z,49.40
2018-09-16T07:09:13.128Z,49.40
2018-09-16T07:10:17.607Z,49.40
2018-09-16T07:11:21.859Z,49.40
2018-09-16T07:12:26.120Z,49.20
2018-09-16T07:13:30.988Z,49.20
2018-09-16T07:14:35.650Z,49.20
2018-09-16T07:15:40.005Z,49.10
2018-09-16T07:16:44.662Z,49.10
2018-09-16T07:17:49.126Z,49.30
2018-09-16T07:18:53.646Z,49.30
2018-09-16T07:19:57.967Z,49.30
2018-09-16T07:21:02.407Z,49.30
2018-09-16T07:22:06.842Z,49.20
2018-09-16T07:23:11.311Z,49.30
2018-09-16T07:24:15.596Z,49.20
2018-09-16T07:25:20.015Z,49.20
2018-09-16T07:26:24.501Z,49.20
2018-09-16T07:27:29.092Z,49.20
2018-09-16T07:28:33.275Z,49.20
2018-09-16T07:29:38.132Z,49.20
2018-09-16T07:30:42.570Z,49.20
2018-09-16T07:31:47.389Z,49.20
2018-09-16T07:32:51.829Z,49.20
2018-09-16T07:33:56.892Z,49.20
2018-09-16T07:35:01.751Z,49.20
2018-09-16T07:36:06.042Z,49.80
2018-09-16T07:37:10.320Z,49.10
2018-09-16T07:38:14.552Z,49.80
2018-09-16T07:39:19.060Z,49.80
2018-09-16T07:40:23.524Z,49.80
2018-09-16T07:41:27.980Z,49.10
2018-09-16T07:42:32.399Z,49.20
2018-09-16T07:43:36.886Z,49.20
2018-09-16T07:44:41.380Z,49.30
2018-09-16T07:45:46.443Z,49.30
2018-09-16T07:46:51.507Z,49.40
2018-09-16T07:47:56.614Z,49.40
2018-09-16T07:49:01.164Z,49.40
2018-09-16T07:50:05.858Z,49.40
2018-09-16T07:51:10.374Z,49.40
2018-09-16T07:52:15.369Z,49.40
2018-09-16T07:53:19.982Z,49.40
2018-09-16T07:54:24.486Z,49.50
2018-09-16T07:55:29.377Z,49.60
2018-09-16T07:56:34.316Z,49.60
2018-09-16T07:57:38.823Z,49.60
2018-09-16T07:58:43.958Z,49.60
2018-09-16T07:59:48.234Z,49.60
2018-09-16T08:00:52.764Z,49.60
2018-09-16T08:01:57.859Z,49.60
2018-09-16T08:03:02.338Z,49.60
2018-09-16T08:04:06.684Z,49.60
2018-09-16T08:05:10.990Z,49.60
2018-09-16T08:06:16.107Z,49.60
2018-09-16T08:07:20.557Z,49.60
2018-09-16T08:08:25.045Z,49.50
2018-09-16T08:09:29.320Z,49.50
2018-09-16T08:10:33.559Z,49.50
2018-09-16T08:11:37.978Z,49.50
2018-09-16T08:12:42.260Z,49.40
2018-09-16T08:13:46.846Z,49.40
2018-09-16T08:14:51.310Z,49.30
2018-09-16T08:15:56.420Z,49.30
2018-09-16T08:17:00.968Z,49.20
2018-09-16T08:18:05.335Z,49.20
2018-09-16T08:19:09.741Z,49.20
2018-09-16T08:20:14.076Z,49.20
2018-09-16T08:21:18.418Z,49.20
2018-09-16T08:22:23.488Z,49.20
2018-09-16T08:23:27.959Z,49.20
2018-09-16T08:24:33.129Z,49.20
2018-09-16T08:25:37.648Z,49.20
2018-09-16T08:26:43.417Z,49.20
2018-09-16T08:27:47.972Z,49.10
2018-09-16T08:28:52.454Z,49.10
2018-09-16T08:29:56.938Z,49.10
2018-09-16T08:31:01.384Z,49.00
2018-09-16T08:32:05.917Z,49.10
2018-09-16T08:33:10.346Z,49.10
2018-09-16T08:34:15.374Z,49.00
2018-09-16T08:35:20.473Z,48.90
2018-09-16T08:36:24.859Z,48.90
2018-09-16T08:37:29.113Z,49.70
2018-09-16T08:38:33.587Z,48.90
2018-09-16T08:39:38.701Z,49.60
2018-09-16T08:40:43.177Z,49.00
2018-09-16T08:41:47.630Z,48.90
2018-09-16T08:42:51.862Z,48.90
2018-09-16T08:43:56.963Z,48.90
2018-09-16T08:45:02.591Z,48.90
2018-09-16T08:46:07.074Z,48.80
2018-09-16T08:47:11.332Z,49.10
2018-09-16T08:48:15.829Z,48.80
2018-09-16T08:49:20.077Z,48.80
2018-09-16T08:50:24.531Z,48.80
2018-09-16T08:51:28.988Z,48.80
2018-09-16T08:52:34.152Z,48.90
2018-09-16T08:53:38.583Z,48.90
2018-09-16T08:54:43.086Z,48.90
2018-09-16T08:55:47.524Z,48.90
2018-09-16T08:56:54.528Z,48.80
2018-09-16T08:57:59.092Z,49.60
2018-09-16T08:59:03.560Z,48.80
2018-09-16T09:00:07.998Z,48.90
2018-09-16T09:01:12.514Z,48.80
2018-09-16T09:02:16.900Z,48.80
2018-09-16T09:03:21.928Z,48.80
2018-09-16T09:04:26.501Z,48.80
2018-09-16T09:05:32.210Z,48.80
2018-09-16T09:06:36.758Z,48.80
2018-09-16T09:07:41.808Z,48.90
2018-09-16T09:08:46.053Z,48.90
2018-09-16T09:09:50.379Z,48.80
2018-09-16T09:10:54.909Z,48.80
2018-09-16T09:11:59.933Z,48.80
2018-09-16T09:13:04.456Z,48.90
2018-09-16T09:14:08.960Z,48.90
2018-09-16T09:15:13.219Z,48.80
2018-09-16T09:16:17.654Z,48.80
2018-09-16T09:17:22.089Z,48.80
2018-09-16T09:18:29.343Z,48.70
2018-09-16T09:19:34.370Z,48.70
2018-09-16T09:20:39.349Z,48.70
2018-09-16T09:21:43.612Z,48.70
2018-09-16T09:22:48.116Z,48.60
2018-09-16T09:23:53.148Z,48.60
2018-09-16T09:24:57.588Z,48.60
2018-09-16T09:26:01.913Z,48.80
2018-09-16T09:27:06.991Z,48.70
2018-09-16T09:28:11.311Z,48.70
2018-09-16T09:29:15.797Z,48.60
2018-09-16T09:30:20.251Z,48.70
2018-09-16T09:31:24.485Z,48.60
2018-09-16T09:32:28.882Z,49.20
2018-09-16T09:33:33.282Z,48.60
2018-09-16T09:34:38.286Z,48.60
2018-09-16T09:35:43.336Z,48.50
2018-09-16T09:36:47.858Z,48.50
2018-09-16T09:37:52.207Z,48.40
2018-09-16T09:38:56.513Z,48.40
2018-09-16T09:40:01.481Z,48.50
2018-09-16T09:41:05.755Z,48.50
2018-09-16T09:42:10.936Z,48.50
2018-09-16T09:43:15.235Z,48.50
2018-09-16T09:44:19.716Z,48.50
2018-09-16T09:45:24.050Z,48.50
2018-09-16T09:46:28.563Z,48.50
2018-09-16T09:47:33.349Z,48.50
2018-09-16T09:48:38.471Z,48.40
2018-09-16T09:49:43.036Z,48.50
2018-09-16T09:50:47.442Z,48.50
2018-09-16T09:51:51.924Z,48.50
2018-09-16T09:52:56.343Z,48.40
2018-09-16T09:54:01.373Z,48.50
2018-09-16T09:55:05.819Z,48.50
2018-09-16T09:56:10.327Z,48.50
2018-09-16T09:57:15.461Z,48.50
2018-09-16T09:58:20.050Z,48.50
2018-09-16T09:59:24.639Z,48.50
2018-09-16T10:00:29.234Z,48.50
2018-09-16T10:01:33.585Z,48.50
2018-09-16T10:02:38.134Z,48.50
2018-09-16T10:03:42.667Z,48.40
2018-09-16T10:04:47.222Z,48.50
2018-09-16T10:05:51.827Z,48.50
2018-09-16T10:06:57.002Z,48.40
2018-09-16T10:08:02.020Z,48.50
2018-09-16T10:09:07.141Z,48.50
2018-09-16T10:10:11.733Z,48.50
2018-09-16T10:11:16.836Z,48.40
2018-09-16T10:12:21.135Z,48.40
2018-09-16T10:13:25.591Z,48.40
2018-09-16T10:14:30.868Z,48.40
2018-09-16T10:15:35.340Z,48.40
2018-09-16T10:16:39.659Z,48.40
2018-09-16T10:17:44.133Z,48.40
2018-09-16T10:18:48.676Z,48.40
2018-09-16T10:19:52.962Z,48.50
2018-09-16T10:20:57.473Z,48.50
2018-09-16T10:22:01.923Z,48.50
2018-09-16T10:23:06.229Z,48.40
2018-09-16T10:24:10.766Z,48.40
2018-09-16T10:25:15.802Z,48.50
2018-09-16T10:26:20.387Z,48.30
2018-09-16T10:27:25.467Z,48.40
2018-09-16T10:28:30.571Z,48.40
2018-09-16T10:29:35.570Z,48.40
2018-09-16T10:30:40.161Z,48.30
2018-09-16T10:31:44.741Z,48.30
2018-09-16T10:32:49.249Z,48.30
2018-09-16T10:33:53.758Z,48.30
2018-09-16T10:34:58.044Z,48.30
2018-09-16T10:36:02.367Z,48.30
2018-09-16T10:37:06.671Z,48.20
2018-09-16T10:38:11.767Z,48.10
2018-09-16T10:39:16.720Z,48.10
2018-09-16T10:40:21.229Z,48.00
2018-09-16T10:41:25.718Z,48.10
2018-09-16T10:42:30.252Z,48.10
2018-09-16T10:43:34.783Z,48.00
2018-09-16T10:44:39.150Z,48.10
2018-09-16T10:45:43.632Z,48.00
2018-09-16T10:46:48.088Z,48.00
2018-09-16T10:47:52.589Z,48.00
2018-09-16T10:48:57.085Z,48.60
2018-09-16T10:50:01.333Z,48.10
2018-09-16T10:51:05.818Z,48.00
2018-09-16T10:52:10.316Z,47.90
2018-09-16T10:53:15.295Z,48.00
2018-09-16T10:54:20.285Z,48.00
2018-09-16T10:55:24.758Z,48.00
2018-09-16T10:56:29.004Z,48.00
2018-09-16T10:57:33.465Z,48.00
2018-09-16T10:58:38.519Z,47.90
2018-09-16T10:59:43.544Z,47.80
2018-09-16T11:00:48.039Z,48.00
2018-09-16T11:01:52.336Z,47.80
2018-09-16T11:02:56.924Z,47.70
2018-09-16T11:04:02.232Z,47.70
2018-09-16T11:05:06.736Z,47.60
2018-09-16T11:06:11.795Z,47.60
2018-09-16T11:07:16.307Z,47.60
2018-09-16T11:08:20.763Z,47.60
2018-09-16T11:09:25.115Z,47.50
2018-09-16T11:10:29.561Z,47.50
2018-09-16T11:11:34.000Z,47.50
2018-09-16T11:12:38.470Z,47.50
2018-09-16T11:13:43.573Z,47.50
2018-09-16T11:14:48.069Z,47.40
2018-09-16T11:15:53.144Z,47.40
2018-09-16T11:16:58.115Z,47.40
2018-09-16T11:18:02.419Z,47.50
2018-09-16T11:19:07.425Z,47.50
2018-09-16T11:20:12.013Z,47.50
2018-09-16T11:21:16.349Z,47.50
2018-09-16T11:22:21.433Z,47.50
2018-09-16T11:23:25.913Z,47.40
2018-09-16T11:24:30.891Z,47.40
2018-09-16T11:25:35.209Z,48.00
2018-09-16T11:26:39.667Z,47.40
2018-09-16T11:27:44.128Z,47.30
2018-09-16T11:28:48.600Z,47.40
2018-09-16T11:29:53.109Z,47.30
2018-09-16T11:30:58.098Z,47.30
2018-09-16T11:32:03.191Z,47.30
2018-09-16T11:33:07.457Z,47.30
2018-09-16T11:34:12.485Z,47.30
2018-09-16T11:35:17.552Z,47.20
2018-09-16T11:36:22.604Z,47.20
2018-09-16T11:37:27.132Z,47.10
2018-09-16T11:38:32.198Z,47.10
2018-09-16T11:39:37.393Z,47.00
2018-09-16T11:40:42.422Z,46.90
2018-09-16T11:41:47.544Z,46.90
2018-09-16T11:42:52.029Z,46.90
2018-09-16T11:43:56.867Z,46.90
2018-09-16T11:45:01.520Z,46.90
2018-09-16T11:46:06.106Z,46.90
2018-09-16T11:47:10.738Z,47.50
2018-09-16T11:48:15.476Z,47.00
2018-09-16T11:49:20.024Z,46.90
2018-09-16T11:50:24.528Z,46.90
2018-09-16T11:51:28.845Z,46.90
2018-09-16T11:52:33.314Z,46.90
2018-09-16T11:53:38.333Z,46.90
2018-09-16T11:54:43.444Z,46.80
2018-09-16T11:55:48.036Z,46.60
2018-09-16T11:56:52.518Z,46.70
2018-09-16T11:57:57.089Z,46.70
2018-09-16T11:59:01.651Z,46.70
2018-09-16T12:00:06.224Z,46.80
2018-09-16T12:01:11.284Z,46.70
2018-09-16T12:02:16.340Z,46.60
2018-09-16T12:03:21.401Z,46.60
2018-09-16T12:04:25.914Z,46.70
2018-09-16T12:05:30.403Z,46.70
2018-09-16T12:06:34.863Z,46.60
2018-09-16T12:07:39.899Z,46.60
2018-09-16T12:08:44.442Z,46.60
2018-09-16T12:09:48.972Z,46.60
2018-09-16T12:10:53.475Z,46.60
2018-09-16T12:11:57.831Z,46.60
2018-09-16T12:13:02.148Z,46.60
2018-09-16T12:14:06.669Z,46.60
2018-09-16T12:15:11.270Z,46.60
2018-09-16T12:16:16.472Z,46.60
2018-09-16T12:17:20.934Z,46.60
2018-09-16T12:18:25.470Z,46.70
2018-09-16T12:19:29.996Z,46.70
2018-09-16T12:20:34.651Z,46.60
2018-09-16T12:21:39.192Z,46.60
2018-09-16T12:22:43.749Z,46.60
2018-09-16T12:23:48.350Z,46.60
2018-09-16T12:24:52.929Z,46.50
2018-09-16T12:25:57.427Z,46.60
2018-09-16T12:27:02.101Z,46.60
2018-09-16T12:28:06.621Z,46.60
2018-09-16T12:29:11.094Z,46.50
2018-09-16T12:30:16.174Z,46.50
2018-09-16T12:31:21.201Z,46.50
2018-09-16T12:32:26.288Z,46.50
2018-09-16T12:33:31.011Z,46.50
2018-09-16T12:34:35.363Z,46.60
2018-09-16T12:35:39.645Z,46.50
2018-09-16T12:36:44.584Z,46.40
2018-09-16T12:37:48.933Z,46.40
2018-09-16T12:38:56.390Z,46.30
2018-09-16T12:40:00.797Z,46.40
2018-09-16T12:41:05.262Z,46.40
2018-09-16T12:42:10.416Z,46.40
2018-09-16T12:43:15.707Z,46.20
2018-09-16T12:44:21.100Z,46.20
2018-09-16T12:45:26.190Z,46.20
2018-09-16T12:46:30.343Z,46.30
2018-09-16T12:47:34.608Z,46.30
2018-09-16T12:48:39.679Z,46.40
2018-09-16T12:49:44.438Z,46.30
2018-09-16T12:50:49.682Z,46.30
2018-09-16T12:51:54.142Z,46.10
2018-09-16T12:52:58.608Z,46.10
2018-09-16T12:54:02.900Z,46.10
2018-09-16T12:55:07.480Z,46.10
2018-09-16T12:56:12.020Z,46.10
2018-09-16T12:57:17.172Z,46.10
2018-09-16T12:58:21.518Z,45.80
2018-09-16T12:59:25.931Z,45.70
2018-09-16T13:00:30.553Z,45.80
2018-09-16T13:01:35.652Z,45.50
2018-09-16T13:02:40.205Z,45.80
2018-09-16T13:03:45.293Z,46.00
2018-09-16T13:04:50.364Z,46.00
2018-09-16T13:05:55.390Z,45.40
2018-09-16T13:07:00.025Z,45.60
2018-09-16T13:08:05.258Z,45.80
2018-09-16T13:09:09.638Z,45.90
2018-09-16T13:10:14.151Z,45.90
2018-09-16T13:11:19.317Z,45.80
2018-09-16T13:12:24.440Z,45.90
2018-09-16T13:13:29.612Z,45.90
2018-09-16T13:14:34.147Z,45.70
2018-09-16T13:15:38.647Z,45.80
2018-09-16T13:16:43.399Z,45.50
2018-09-16T13:17:47.888Z,45.50
2018-09-16T13:18:52.431Z,46.20
2018-09-16T13:19:57.463Z,45.70
2018-09-16T13:21:02.532Z,45.70
2018-09-16T13:22:06.842Z,45.80
2018-09-16T13:23:12.244Z,45.70
2018-09-16T13:24:17.294Z,45.70
2018-09-16T13:25:21.680Z,45.60
2018-09-16T13:26:26.327Z,45.80
2018-09-16T13:27:30.869Z,45.70
2018-09-16T13:28:35.509Z,45.50
2018-09-16T13:29:39.948Z,45.70
2018-09-16T13:30:44.587Z,45.60
2018-09-16T13:31:49.053Z,45.70
2018-09-16T13:32:53.543Z,45.80
2018-09-16T13:33:58.136Z,45.80
2018-09-16T13:35:02.674Z,45.80
2018-09-16T13:36:07.321Z,45.60
2018-09-16T13:37:11.893Z,45.70
2018-09-16T13:38:16.575Z,45.90
2018-09-16T13:39:21.552Z,45.80
2018-09-16T13:40:25.939Z,45.70
2018-09-16T13:41:31.073Z,45.70
2018-09-16T13:42:35.619Z,45.80
2018-09-16T13:43:40.228Z,45.70
2018-09-16T13:44:44.695Z,45.60
2018-09-16T13:45:49.212Z,45.70
2018-09-16T13:46:53.920Z,45.70
2018-09-16T13:47:58.442Z,45.80
2018-09-16T13:49:02.977Z,45.60
2018-09-16T13:50:08.058Z,45.60
2018-09-16T13:51:12.385Z,45.50